WIZ985 LFPG-LFBD
Flight info
| Callsign | WIZ985 |
|---|---|
| Flight time | 0h 55m |
| Altitude | 29000 |
| Route | AGOPA6K AGOPA DCT ARKIP DCT ARNAV DCT LMG LMG2L |
| Aircraft | A320/M-SDE1FGHILORVWXY/L |
Departure
| Time | 2026-05-04 20:56 |
|---|---|
| Airport | Charles de Gaulle International Airport (LFPG) |
Arrival
| Time | 2026-05-04 21:51 |
|---|---|
| Airport | Bordeaux–Mérignac Airport (LFBD) |
| Time | Latitude | Longitude | Altitude | Speed | Heading |
|---|---|---|---|---|---|
| 2026-05-04 20:21 | 49.01563 | 2.54557 | 359 ft | 0 kts | 238° |
| 2026-05-04 20:43 | 49.01565 | 2.54562 | 354 ft | 3 kts | 239° |
| 2026-05-04 20:43 | 49.01582 | 2.54611 | 364 ft | 4 kts | 250° |
| 2026-05-04 20:43 | 49.01589 | 2.54649 | 363 ft | 4 kts | 262° |
| 2026-05-04 20:44 | 49.01589 | 2.54688 | 361 ft | 4 kts | 292° |
| 2026-05-04 20:44 | 49.01579 | 2.54709 | 364 ft | 0 kts | 338° |
| 2026-05-04 20:46 | 49.01596 | 2.54698 | 358 ft | 5 kts | 336° |
| 2026-05-04 20:47 | 49.01643 | 2.54657 | 358 ft | 10 kts | 327° |
| 2026-05-04 20:47 | 49.01686 | 2.54606 | 356 ft | 13 kts | 319° |
| 2026-05-04 20:47 | 49.01756 | 2.54477 | 364 ft | 18 kts | 303° |
| 2026-05-04 20:47 | 49.01801 | 2.54318 | 354 ft | 14 kts | 282° |
| 2026-05-04 20:48 | 49.01815 | 2.54200 | 359 ft | 1 kts | 282° |
| 2026-05-04 20:48 | 49.01813 | 2.54176 | 354 ft | 5 kts | 263° |
| 2026-05-04 20:48 | 49.01808 | 2.54099 | 354 ft | 10 kts | 265° |
| 2026-05-04 20:48 | 49.01801 | 2.53969 | 360 ft | 15 kts | 265° |
| 2026-05-04 20:49 | 49.01792 | 2.53793 | 358 ft | 19 kts | 265° |
| 2026-05-04 20:49 | 49.01780 | 2.53571 | 354 ft | 23 kts | 265° |
| 2026-05-04 20:49 | 49.01768 | 2.53382 | 356 ft | 14 kts | 263° |
| 2026-05-04 20:49 | 49.01759 | 2.53219 | 355 ft | 17 kts | 265° |
| 2026-05-04 20:50 | 49.01750 | 2.53034 | 356 ft | 18 kts | 266° |
| 2026-05-04 20:50 | 49.01739 | 2.52827 | 363 ft | 21 kts | 264° |
| 2026-05-04 20:50 | 49.01727 | 2.52598 | 358 ft | 23 kts | 265° |
| 2026-05-04 20:50 | 49.01718 | 2.52437 | 360 ft | 16 kts | 265° |
| 2026-05-04 20:51 | 49.01708 | 2.52262 | 356 ft | 15 kts | 265° |
| 2026-05-04 20:51 | 49.01737 | 2.52153 | 364 ft | 9 kts | 333° |
| 2026-05-04 20:51 | 49.01812 | 2.52132 | 358 ft | 13 kts | 354° |
| 2026-05-04 20:51 | 49.01909 | 2.52120 | 354 ft | 15 kts | 355° |
| 2026-05-04 20:52 | 49.02026 | 2.52107 | 354 ft | 15 kts | 356° |
| 2026-05-04 20:52 | 49.02102 | 2.52131 | 361 ft | 10 kts | 42° |
| 2026-05-04 20:52 | 49.02110 | 2.52155 | 356 ft | 1 kts | 85° |
| 2026-05-04 20:52 | 49.02110 | 2.52161 | 355 ft | 0 kts | 86° |
| 2026-05-04 20:54 | 49.02110 | 2.52172 | 360 ft | 9 kts | 86° |
| 2026-05-04 20:55 | 49.02138 | 2.52648 | 359 ft | 80 kts | 85° |
| 2026-05-04 20:55 | 49.02201 | 2.53802 | 354 ft | 135 kts | 85° |
| 2026-05-04 20:55 | 49.02297 | 2.55447 | 415 ft | 173 kts | 84° |
| 2026-05-04 20:55 | 49.02368 | 2.57376 | 848 ft | 191 kts | 87° |
| 2026-05-04 20:56 | 49.02410 | 2.59479 | 1393 ft | 208 kts | 88° |
| 2026-05-04 20:56 | 49.02477 | 2.61794 | 1882 ft | 231 kts | 84° |
| 2026-05-04 20:56 | 49.02635 | 2.64351 | 2484 ft | 250 kts | 84° |
| 2026-05-04 20:56 | 49.02819 | 2.67049 | 3312 ft | 261 kts | 84° |
| 2026-05-04 20:57 | 49.03015 | 2.69843 | 4180 ft | 269 kts | 84° |
| 2026-05-04 20:57 | 49.03225 | 2.72730 | 5015 ft | 279 kts | 84° |
| 2026-05-04 20:57 | 49.03433 | 2.75680 | 6017 ft | 279 kts | 85° |
| 2026-05-04 20:57 | 49.03603 | 2.78573 | 7050 ft | 277 kts | 86° |
| 2026-05-04 20:58 | 49.03761 | 2.81498 | 8022 ft | 277 kts | 86° |
| 2026-05-04 20:58 | 49.03916 | 2.84438 | 8916 ft | 281 kts | 86° |
| 2026-05-04 20:58 | 49.04044 | 2.87448 | 9731 ft | 287 kts | 87° |
| 2026-05-04 20:58 | 49.04165 | 2.90535 | 10304 ft | 301 kts | 87° |
| 2026-05-04 20:59 | 49.04000 | 2.93737 | 10607 ft | 320 kts | 106° |
| 2026-05-04 20:59 | 49.03070 | 2.96797 | 11214 ft | 327 kts | 126° |
| 2026-05-04 20:59 | 49.01385 | 2.99300 | 11958 ft | 331 kts | 147° |
| 2026-05-04 20:59 | 48.99259 | 3.00646 | 12685 ft | 335 kts | 169° |
| 2026-05-04 21:00 | 48.96956 | 3.00902 | 13417 ft | 338 kts | 178° |
| 2026-05-04 21:00 | 48.94593 | 3.00991 | 14119 ft | 341 kts | 179° |
| 2026-05-04 21:00 | 48.92223 | 3.00640 | 14764 ft | 345 kts | 194° |
| 2026-05-04 21:00 | 48.90018 | 2.99187 | 15399 ft | 349 kts | 213° |
| 2026-05-04 21:01 | 48.88214 | 2.96706 | 16026 ft | 352 kts | 226° |
| 2026-05-04 21:01 | 48.86552 | 2.93962 | 16704 ft | 354 kts | 227° |
| 2026-05-04 21:01 | 48.84894 | 2.91173 | 17369 ft | 357 kts | 227° |
| 2026-05-04 21:01 | 48.83229 | 2.88361 | 18043 ft | 360 kts | 227° |
| 2026-05-04 21:02 | 48.81547 | 2.85530 | 18656 ft | 362 kts | 227° |
| 2026-05-04 21:02 | 48.79849 | 2.82689 | 19218 ft | 365 kts | 227° |
| 2026-05-04 21:02 | 48.78156 | 2.79874 | 19821 ft | 367 kts | 227° |
| 2026-05-04 21:02 | 48.76507 | 2.77144 | 20390 ft | 369 kts | 227° |
| 2026-05-04 21:03 | 48.74765 | 2.74264 | 20956 ft | 372 kts | 226° |
| 2026-05-04 21:03 | 48.73013 | 2.71368 | 21507 ft | 374 kts | 226° |
| 2026-05-04 21:03 | 48.71247 | 2.68455 | 22031 ft | 376 kts | 226° |
| 2026-05-04 21:03 | 48.69392 | 2.65676 | 22335 ft | 384 kts | 216° |
| 2026-05-04 21:04 | 48.67182 | 2.63809 | 22663 ft | 390 kts | 202° |
| 2026-05-04 21:04 | 48.64562 | 2.62233 | 23161 ft | 393 kts | 201° |
| 2026-05-04 21:04 | 48.62042 | 2.60742 | 23644 ft | 396 kts | 201° |
| 2026-05-04 21:04 | 48.59595 | 2.59302 | 24098 ft | 397 kts | 201° |
| 2026-05-04 21:05 | 48.57017 | 2.57792 | 24536 ft | 399 kts | 200° |
| 2026-05-04 21:05 | 48.54426 | 2.56275 | 25005 ft | 400 kts | 201° |
| 2026-05-04 21:05 | 48.51823 | 2.54751 | 25442 ft | 402 kts | 201° |
| 2026-05-04 21:05 | 48.49215 | 2.53221 | 25877 ft | 403 kts | 201° |
| 2026-05-04 21:06 | 48.46753 | 2.51774 | 26288 ft | 404 kts | 201° |
| 2026-05-04 21:06 | 48.44128 | 2.50232 | 26715 ft | 406 kts | 201° |
| 2026-05-04 21:06 | 48.41529 | 2.48708 | 27145 ft | 407 kts | 201° |
| 2026-05-04 21:06 | 48.39103 | 2.47286 | 27564 ft | 408 kts | 201° |
| 2026-05-04 21:07 | 48.36455 | 2.45731 | 28009 ft | 409 kts | 201° |
| 2026-05-04 21:07 | 48.33881 | 2.44221 | 28441 ft | 411 kts | 201° |
| 2026-05-04 21:07 | 48.31208 | 2.42658 | 28831 ft | 413 kts | 200° |
| 2026-05-04 21:07 | 48.28542 | 2.41106 | 28934 ft | 408 kts | 200° |
| 2026-05-04 21:08 | 48.23415 | 2.38128 | 28927 ft | 401 kts | 200° |
| 2026-05-04 21:08 | 48.18254 | 2.35113 | 28929 ft | 400 kts | 201° |
| 2026-05-04 21:09 | 48.13071 | 2.32062 | 28934 ft | 400 kts | 201° |
| 2026-05-04 21:09 | 48.07952 | 2.29046 | 28939 ft | 400 kts | 201° |
| 2026-05-04 21:10 | 48.02790 | 2.26031 | 28946 ft | 400 kts | 201° |
| 2026-05-04 21:10 | 47.97645 | 2.23032 | 28951 ft | 400 kts | 200° |
| 2026-05-04 21:11 | 47.92499 | 2.20047 | 28958 ft | 399 kts | 200° |
| 2026-05-04 21:11 | 47.87336 | 2.17050 | 28960 ft | 399 kts | 200° |
| 2026-05-04 21:12 | 47.82167 | 2.14049 | 28959 ft | 398 kts | 200° |
| 2026-05-04 21:12 | 47.77004 | 2.11058 | 28930 ft | 398 kts | 200° |
| 2026-05-04 21:13 | 47.71874 | 2.08104 | 28948 ft | 398 kts | 200° |
| 2026-05-04 21:13 | 47.66722 | 2.05138 | 28943 ft | 397 kts | 200° |
| 2026-05-04 21:14 | 47.61600 | 2.02190 | 28935 ft | 396 kts | 200° |
| 2026-05-04 21:14 | 47.56442 | 1.99239 | 28932 ft | 396 kts | 200° |
| 2026-05-04 21:15 | 47.51516 | 1.96417 | 28929 ft | 395 kts | 200° |
| 2026-05-04 21:15 | 47.46391 | 1.93486 | 28926 ft | 395 kts | 200° |
| 2026-05-04 21:16 | 47.41258 | 1.90566 | 28929 ft | 395 kts | 200° |
| 2026-05-04 21:16 | 47.36126 | 1.87651 | 28925 ft | 395 kts | 200° |
| 2026-05-04 21:17 | 47.31057 | 1.84783 | 28926 ft | 395 kts | 199° |
| 2026-05-04 21:17 | 47.26155 | 1.81981 | 29107 ft | 391 kts | 200° |
| 2026-05-04 21:18 | 47.23673 | 1.80574 | 30217 ft | 378 kts | 199° |
| 2026-05-04 21:18 | 47.21217 | 1.79194 | 30628 ft | 380 kts | 199° |
| 2026-05-04 21:18 | 47.18736 | 1.77804 | 30851 ft | 383 kts | 200° |
| 2026-05-04 21:18 | 47.16239 | 1.76405 | 30911 ft | 384 kts | 199° |
| 2026-05-04 21:19 | 47.11284 | 1.73630 | 30919 ft | 384 kts | 199° |
| 2026-05-04 21:19 | 47.06299 | 1.70828 | 30917 ft | 383 kts | 199° |
| 2026-05-04 21:20 | 47.01282 | 1.68013 | 30923 ft | 395 kts | 199° |
| 2026-05-04 21:20 | 46.98679 | 1.66559 | 30920 ft | 406 kts | 199° |
| 2026-05-04 21:20 | 46.96012 | 1.65070 | 30923 ft | 413 kts | 199° |
| 2026-05-04 21:21 | 46.90648 | 1.62078 | 30940 ft | 415 kts | 199° |
| 2026-05-04 21:21 | 46.87937 | 1.60565 | 30052 ft | 421 kts | 199° |
| 2026-05-04 21:21 | 46.85210 | 1.59046 | 29611 ft | 412 kts | 199° |
| 2026-05-04 21:22 | 46.82589 | 1.57584 | 29291 ft | 401 kts | 199° |
| 2026-05-04 21:22 | 46.79997 | 1.56142 | 28893 ft | 394 kts | 199° |
| 2026-05-04 21:22 | 46.74844 | 1.53287 | 28921 ft | 406 kts | 199° |
| 2026-05-04 21:23 | 46.69494 | 1.50339 | 28919 ft | 419 kts | 199° |
| 2026-05-04 21:23 | 46.64036 | 1.47321 | 28918 ft | 420 kts | 199° |
| 2026-05-04 21:24 | 46.58570 | 1.44305 | 28918 ft | 420 kts | 199° |
| 2026-05-04 21:24 | 46.53107 | 1.41295 | 28920 ft | 420 kts | 199° |
| 2026-05-04 21:25 | 46.47680 | 1.38315 | 28925 ft | 420 kts | 199° |
| 2026-05-04 21:25 | 46.42220 | 1.35325 | 28925 ft | 420 kts | 199° |
| 2026-05-04 21:26 | 46.36756 | 1.32344 | 28924 ft | 419 kts | 199° |
| 2026-05-04 21:26 | 46.31300 | 1.29370 | 28934 ft | 419 kts | 198° |
| 2026-05-04 21:27 | 46.25886 | 1.26425 | 28939 ft | 418 kts | 198° |
| 2026-05-04 21:27 | 46.20446 | 1.23466 | 28938 ft | 418 kts | 198° |
| 2026-05-04 21:28 | 46.14994 | 1.20518 | 28908 ft | 420 kts | 198° |
| 2026-05-04 21:28 | 46.09516 | 1.17562 | 28938 ft | 419 kts | 198° |
| 2026-05-04 21:29 | 46.06849 | 1.16116 | 28944 ft | 400 kts | 198° |
| 2026-05-04 21:29 | 46.04332 | 1.14748 | 28944 ft | 386 kts | 198° |
| 2026-05-04 21:29 | 45.99347 | 1.12059 | 28947 ft | 381 kts | 198° |
| 2026-05-04 21:30 | 45.94387 | 1.09410 | 28946 ft | 380 kts | 198° |
| 2026-05-04 21:30 | 45.89434 | 1.06765 | 28949 ft | 380 kts | 198° |
| 2026-05-04 21:31 | 45.82234 | 1.02153 | 28945 ft | 386 kts | 212° |
| 2026-05-04 21:32 | 45.78507 | 0.96508 | 28949 ft | 397 kts | 229° |
| 2026-05-04 21:32 | 45.75270 | 0.90107 | 28951 ft | 397 kts | 228° |
| 2026-05-04 21:32 | 45.73645 | 0.86913 | 28825 ft | 397 kts | 228° |
| 2026-05-04 21:33 | 45.72021 | 0.83726 | 28550 ft | 395 kts | 228° |
| 2026-05-04 21:33 | 45.70419 | 0.80579 | 28202 ft | 389 kts | 228° |
| 2026-05-04 21:33 | 45.68859 | 0.77515 | 27739 ft | 384 kts | 228° |
| 2026-05-04 21:33 | 45.67290 | 0.74440 | 27200 ft | 380 kts | 228° |
| 2026-05-04 21:34 | 45.65738 | 0.71410 | 26688 ft | 376 kts | 228° |
| 2026-05-04 21:34 | 45.64199 | 0.68409 | 26203 ft | 372 kts | 228° |
| 2026-05-04 21:34 | 45.62647 | 0.65399 | 25718 ft | 388 kts | 228° |
| 2026-05-04 21:34 | 45.60991 | 0.62213 | 25208 ft | 407 kts | 229° |
| 2026-05-04 21:35 | 45.59300 | 0.58946 | 24694 ft | 411 kts | 229° |
| 2026-05-04 21:35 | 45.57595 | 0.55634 | 24176 ft | 419 kts | 229° |
| 2026-05-04 21:35 | 45.55895 | 0.52326 | 23674 ft | 417 kts | 229° |
| 2026-05-04 21:35 | 45.54216 | 0.49052 | 23436 ft | 400 kts | 229° |
| 2026-05-04 21:36 | 45.52596 | 0.45892 | 22959 ft | 391 kts | 229° |
| 2026-05-04 21:36 | 45.50998 | 0.42785 | 22314 ft | 386 kts | 229° |
| 2026-05-04 21:36 | 45.49410 | 0.39716 | 21747 ft | 384 kts | 229° |
| 2026-05-04 21:36 | 45.47821 | 0.36661 | 21290 ft | 383 kts | 230° |
| 2026-05-04 21:37 | 45.46236 | 0.33623 | 20825 ft | 379 kts | 230° |
| 2026-05-04 21:37 | 45.44676 | 0.30629 | 20331 ft | 374 kts | 230° |
| 2026-05-04 21:37 | 45.43166 | 0.27727 | 19847 ft | 370 kts | 231° |
| 2026-05-04 21:37 | 45.41616 | 0.24753 | 19038 ft | 374 kts | 231° |
| 2026-05-04 21:38 | 45.40065 | 0.21786 | 18495 ft | 369 kts | 231° |
| 2026-05-04 21:38 | 45.38551 | 0.18891 | 17477 ft | 363 kts | 232° |
| 2026-05-04 21:38 | 45.37039 | 0.16000 | 16700 ft | 365 kts | 232° |
| 2026-05-04 21:38 | 45.35528 | 0.13107 | 16108 ft | 361 kts | 232° |
| 2026-05-04 21:39 | 45.34032 | 0.10221 | 15420 ft | 362 kts | 233° |
| 2026-05-04 21:39 | 45.32562 | 0.07354 | 14900 ft | 357 kts | 233° |
| 2026-05-04 21:39 | 45.31111 | 0.04518 | 14278 ft | 352 kts | 233° |
| 2026-05-04 21:39 | 45.29699 | 0.01762 | 13271 ft | 351 kts | 233° |
| 2026-05-04 21:40 | 45.28260 | -0.01044 | 12669 ft | 349 kts | 234° |
| 2026-05-04 21:40 | 45.26849 | -0.03796 | 11842 ft | 343 kts | 234° |
| 2026-05-04 21:40 | 45.25442 | -0.06536 | 11204 ft | 343 kts | 234° |
| 2026-05-04 21:40 | 45.24040 | -0.09265 | 10546 ft | 343 kts | 234° |
| 2026-05-04 21:41 | 45.22653 | -0.11950 | 10337 ft | 330 kts | 234° |
| 2026-05-04 21:41 | 45.21326 | -0.14515 | 10215 ft | 316 kts | 234° |
| 2026-05-04 21:41 | 45.20049 | -0.16980 | 10093 ft | 304 kts | 234° |
| 2026-05-04 21:41 | 45.18835 | -0.19319 | 9975 ft | 293 kts | 234° |
| 2026-05-04 21:42 | 45.17642 | -0.21616 | 9755 ft | 286 kts | 235° |
| 2026-05-04 21:42 | 45.16412 | -0.23798 | 9152 ft | 283 kts | 227° |
| 2026-05-04 21:42 | 45.15034 | -0.25781 | 8480 ft | 282 kts | 227° |
| 2026-05-04 21:42 | 45.13667 | -0.27755 | 7839 ft | 279 kts | 227° |
| 2026-05-04 21:43 | 45.12319 | -0.29702 | 7283 ft | 276 kts | 227° |
| 2026-05-04 21:43 | 45.10963 | -0.31658 | 6895 ft | 277 kts | 227° |
| 2026-05-04 21:43 | 45.09631 | -0.33575 | 6407 ft | 272 kts | 227° |
| 2026-05-04 21:43 | 45.08337 | -0.35420 | 5758 ft | 271 kts | 227° |
| 2026-05-04 21:44 | 45.07015 | -0.37267 | 5538 ft | 254 kts | 226° |
| 2026-05-04 21:44 | 45.05785 | -0.38972 | 5085 ft | 248 kts | 226° |
| 2026-05-04 21:44 | 45.04514 | -0.40740 | 4066 ft | 265 kts | 226° |
| 2026-05-04 21:44 | 45.03154 | -0.42632 | 3315 ft | 276 kts | 227° |
| 2026-05-04 21:45 | 45.01829 | -0.44467 | 3106 ft | 258 kts | 227° |
| 2026-05-04 21:45 | 45.00598 | -0.46167 | 3012 ft | 236 kts | 227° |
| 2026-05-04 21:45 | 44.99484 | -0.47697 | 3024 ft | 211 kts | 229° |
| 2026-05-04 21:45 | 44.98504 | -0.49085 | 3028 ft | 194 kts | 229° |
| 2026-05-04 21:46 | 44.97590 | -0.50398 | 3030 ft | 183 kts | 230° |
| 2026-05-04 21:46 | 44.96705 | -0.51675 | 3054 ft | 182 kts | 230° |
| 2026-05-04 21:46 | 44.95822 | -0.52948 | 3191 ft | 181 kts | 230° |
| 2026-05-04 21:46 | 44.94927 | -0.54201 | 3371 ft | 183 kts | 229° |
| 2026-05-04 21:47 | 44.94029 | -0.55508 | 3073 ft | 185 kts | 230° |
| 2026-05-04 21:47 | 44.93145 | -0.56791 | 2811 ft | 179 kts | 230° |
| 2026-05-04 21:47 | 44.92289 | -0.58025 | 2559 ft | 173 kts | 230° |
| 2026-05-04 21:47 | 44.91475 | -0.59193 | 2346 ft | 165 kts | 230° |
| 2026-05-04 21:48 | 44.90699 | -0.60307 | 2144 ft | 153 kts | 231° |
| 2026-05-04 21:48 | 44.89970 | -0.61353 | 1921 ft | 148 kts | 232° |
| 2026-05-04 21:48 | 44.89259 | -0.62374 | 1731 ft | 144 kts | 231° |
| 2026-05-04 21:48 | 44.88556 | -0.63384 | 1515 ft | 144 kts | 231° |
| 2026-05-04 21:49 | 44.87856 | -0.64389 | 1325 ft | 144 kts | 231° |
| 2026-05-04 21:49 | 44.87157 | -0.65389 | 1122 ft | 143 kts | 230° |
| 2026-05-04 21:49 | 44.86472 | -0.66369 | 932 ft | 142 kts | 229° |
| 2026-05-04 21:49 | 44.85775 | -0.67353 | 748 ft | 141 kts | 227° |
| 2026-05-04 21:50 | 44.85089 | -0.68330 | 566 ft | 140 kts | 227° |
| 2026-05-04 21:50 | 44.84408 | -0.69313 | 352 ft | 139 kts | 227° |
| 2026-05-04 21:50 | 44.83731 | -0.70304 | 240 ft | 141 kts | 226° |
| 2026-05-04 21:50 | 44.83093 | -0.71235 | 172 ft | 118 kts | 225° |
| 2026-05-04 21:51 | 44.82602 | -0.71915 | 172 ft | 84 kts | 226° |
| 2026-05-04 21:51 | 44.82295 | -0.72347 | 172 ft | 48 kts | 227° |
| 2026-05-04 21:51 | 44.82138 | -0.72464 | 173 ft | 22 kts | 154° |
| 2026-05-04 21:51 | 44.82084 | -0.72301 | 172 ft | 14 kts | 87° |
| 2026-05-04 21:52 | 44.82122 | -0.72151 | 172 ft | 19 kts | 54° |
| 2026-05-04 21:52 | 44.82224 | -0.72002 | 171 ft | 23 kts | 45° |
| 2026-05-04 21:52 | 44.82347 | -0.71825 | 171 ft | 27 kts | 45° |
| 2026-05-04 21:52 | 44.82480 | -0.71633 | 171 ft | 25 kts | 42° |
| 2026-05-04 21:53 | 44.82556 | -0.71523 | 171 ft | 16 kts | 46° |
| 2026-05-04 21:53 | 44.82646 | -0.71396 | 171 ft | 21 kts | 45° |
| 2026-05-04 21:53 | 44.82759 | -0.71235 | 169 ft | 26 kts | 48° |
| 2026-05-04 21:53 | 44.82862 | -0.71091 | 170 ft | 10 kts | 45° |
| 2026-05-04 21:54 | 44.82922 | -0.71004 | 170 ft | 15 kts | 45° |
| 2026-05-04 21:54 | 44.82980 | -0.70921 | 170 ft | 7 kts | 46° |
| 2026-05-04 21:54 | 44.83027 | -0.70852 | 170 ft | 12 kts | 45° |
| 2026-05-04 21:54 | 44.83101 | -0.70749 | 170 ft | 17 kts | 45° |
| 2026-05-04 21:55 | 44.83187 | -0.70628 | 169 ft | 13 kts | 46° |
| 2026-05-04 21:55 | 44.83197 | -0.70533 | 169 ft | 8 kts | 100° |
| 2026-05-04 21:55 | 44.83208 | -0.70486 | 169 ft | 1 kts | 61° |
| 2026-05-04 21:55 | 44.83210 | -0.70462 | 169 ft | 2 kts | 114° |
| 2026-05-04 21:56 | 44.83199 | -0.70452 | 169 ft | 3 kts | 140° |
| 2026-05-04 21:56 | 44.83179 | -0.70425 | 170 ft | 4 kts | 142° |
| 2026-05-04 21:56 | 44.83168 | -0.70420 | 170 ft | 0 kts | 159° |
| 2026-05-04 21:56 | 44.83164 | -0.70422 | 170 ft | 0 kts | 193° |
| 2026-05-04 21:57 | 44.83158 | -0.70434 | 170 ft | 3 kts | 226° |
| 2026-05-04 21:57 | 44.83136 | -0.70436 | 170 ft | 1 kts | 175° |
| 2026-05-04 21:57 | 44.83134 | -0.70436 | 170 ft | 0 kts | 174° |
| 2026-05-04 21:59 | 44.83148 | -0.70435 | 170 ft | 0 kts | 174° |